AGGA

Auki Airport

Auki, Solomon Islands
TAF AGGA 162310Z 1700/1724 18008KT 9999 SCT019 PROB40 INTER 1702/1706 5000 TSSH BKN018 FEW019CB
Issued Valid From Valid To
Jan-16 @ 23:10 UTC
(6 hours ago)
Jan-17 @ 00:00 UTC
(5 hours ago)
Jan-18 @ 00:00 UTC
(in 19 hours)
Jan-17 @ 00:00 to Jan-18 @ 00:00
TAF AGGA 162310Z 1700/1724 18008KT 9999 SCT019
Wind Visibility Clouds
180° at 8 knots 10,000+ meters
  • Scattered at 1,900' AGL
Temporary  (Probability 40%) Jan-17 @ 02:00 to Jan-17 @ 06:00
PROB40 INTER 1702/1706 5000 TSSH BKN018 FEW019CB
Visibility Clouds Conditions
5,005 meters
  • Broken at 1,800' AGL
  • Few at 1,900' AGL
  • Thunderstorm
TAF AGGA 162310Z 1700/1724 18008KT 9999 SCT019 PROB40 INTER 1702/1706 5000 TSSH BKN018 FEW019CB
Issued Jan-16 @ 23:10 UTC
(6 hours ago)
Valid From Jan-17 @ 00:00 UTC
(5 hours ago)
Valid To Jan-18 @ 00:00 UTC
(in 19 hours)
Jan-17 @ 00:00 - Jan-18 @ 00:00
Wind Visibility
180° at 8 knots 10,000+ meters
Clouds
  • Scattered at 1,900' AGL
Probability 40% Temporary Jan-17 @ 02:00 - Jan-17 @ 06:00
Clouds
  • Broken at 1,800' AGL
  • Few at 1,900' AGL
Conditions
  • Thunderstorm